Time;durP1;ratioP1;P1;durP2;ratioP2;P2;SDS_P1;SDS_P2;PMS_P1;PMS_P2;Temp;Humidity;BMP_temperature;BMP_pressure;BME280_temperature;BME280_humidity;BME280_pressure;Samples;Min_cycle;Max_cycle;Signal;HPM_P1;HPM_P2
2023/07/24 00:01:23;;;;;;;2.05;1.05;;;;;;;35.73;17.96;100516.03;4951268;28;20058;-76
2023/07/24 00:03:54;;;;;;;1.27;1.00;;;;;;;35.69;17.92;100509.19;4959875;28;20043;-81
2023/07/24 00:06:24;;;;;;;1.30;1.13;;;;;;;35.62;17.87;100514.19;4959712;28;20133;-80
2023/07/24 00:08:53;;;;;;;1.20;1.00;;;;;;;35.59;18.06;100515.28;4950737;28;20050;-78
2023/07/24 00:11:21;;;;;;;3.20;1.20;;;;;;;35.56;17.54;100518.22;4957953;28;20050;-81
2023/07/24 00:13:50;;;;;;;2.35;1.20;;;;;;;35.56;17.56;100514.69;4961861;28;20102;-80
2023/07/24 00:16:22;;;;;;;1.88;1.20;;;;;;;35.47;17.51;100510.88;4956203;28;20055;-79
2023/07/24 00:18:50;;;;;;;3.35;1.20;;;;;;;35.40;17.67;100515.03;4947663;28;20043;-82
2023/07/24 00:21:19;;;;;;;3.25;1.27;;;;;;;35.34;17.60;100519.03;4956761;28;20520;-80
2023/07/24 00:23:50;;;;;;;1.30;0.90;;;;;;;35.29;17.84;100512.31;4949348;28;20512;-82
2023/07/24 00:26:19;;;;;;;1.60;0.93;;;;;;;35.21;18.26;100516.47;4938593;28;20075;-82
2023/07/24 00:28:48;;;;;;;1.38;0.95;;;;;;;35.00;18.19;100513.59;4937662;28;20298;-84
2023/07/24 00:31:17;;;;;;;1.40;0.90;;;;;;;34.72;18.62;100509.44;4943355;28;20178;-79
2023/07/24 00:33:45;;;;;;;1.40;0.88;;;;;;;34.46;18.78;100507.84;4950602;28;20807;-83
2023/07/24 00:36:14;;;;;;;1.33;0.80;;;;;;;34.41;19.54;100511.75;4943967;28;20044;-83
2023/07/24 00:38:43;;;;;;;1.25;1.00;;;;;;;34.37;20.32;100512.94;4950353;28;20054;-82
2023/07/24 00:41:13;;;;;;;1.20;0.90;;;;;;;34.41;20.39;100511.75;4947292;28;20494;-81
2023/07/24 00:43:42;;;;;;;1.38;1.23;;;;;;;34.42;20.33;100513.44;4937696;28;20059;-79
2023/07/24 00:46:12;;;;;;;1.25;0.90;;;;;;;34.26;20.15;100504.81;4954741;28;20398;-79
2023/07/24 00:48:42;;;;;;;2.40;1.00;;;;;;;34.22;20.65;100511.38;4942537;28;20142;-76
2023/07/24 00:51:13;;;;;;;3.55;1.00;;;;;;;34.14;20.95;100508.41;4949155;28;20782;-83
2023/07/24 00:53:42;;;;;;;1.15;0.95;;;;;;;34.14;20.85;100508.41;4940943;28;20541;-76
2023/07/24 00:56:13;;;;;;;2.33;1.10;;;;;;;34.15;21.24;100510.13;4951250;28;20058;-79
2023/07/24 00:58:41;;;;;;;3.83;1.02;;;;;;;33.88;22.20;100511.16;4951946;28;20047;-80
2023/07/24 01:01:15;;;;;;;2.35;1.20;;;;;;;33.84;22.22;100508.78;4956916;28;20125;-84
2023/07/24 01:03:44;;;;;;;4.35;1.10;;;;;;;33.73;22.50;100514.94;4958994;28;20088;-79
2023/07/24 01:06:13;;;;;;;0.90;0.80;;;;;;;33.63;22.57;100513.84;4966508;28;20138;-77
2023/07/24 01:08:41;;;;;;;2.33;1.08;;;;;;;33.52;22.61;100518.13;4952123;28;20417;-80
2023/07/24 01:11:17;;;;;;;2.60;0.82;;;;;;;33.41;22.74;100515.34;4961252;28;20047;-76
2023/07/24 01:13:52;;;;;;;1.33;1.05;;;;;;;33.35;23.21;100516.66;4962818;28;20130;-81
2023/07/24 01:16:23;;;;;;;5.85;0.90;;;;;;;33.23;22.70;100511.28;4963061;28;20500;-81
2023/07/24 01:18:56;;;;;;;1.95;0.95;;;;;;;33.14;23.08;100520.78;4954907;28;20111;-79
2023/07/24 01:21:40;;;;;;;1.88;1.15;;;;;;;33.07;23.44;100512.31;4958342;28;20420;-79
2023/07/24 01:24:25;;;;;;;3.33;1.00;;;;;;;33.00;23.54;100519.03;4945000;28;20432;-83
2023/07/24 01:26:56;;;;;;;1.65;0.93;;;;;;;32.95;23.56;100523.84;4960285;28;20496;-81
2023/07/24 01:29:27;;;;;;;1.23;1.02;;;;;;;32.88;22.89;100518.06;4970702;28;20053;-80
2023/07/24 01:31:58;;;;;;;2.22;0.73;;;;;;;32.85;22.79;100517.38;4954318;28;20062;-81
2023/07/24 01:34:27;;;;;;;2.17;0.82;;;;;;;32.81;22.48;100516.75;4957707;28;20422;-76
2023/07/24 01:36:56;;;;;;;2.35;0.82;;;;;;;32.74;22.50;100510.94;4954905;28;20134;-79
2023/07/24 01:39:25;;;;;;;4.47;0.90;;;;;;;32.71;22.92;100515.63;4967222;28;20046;-84
2023/07/24 01:41:56;;;;;;;1.85;1.05;;;;;;;32.65;22.76;100516.94;4963401;28;20060;-85
2023/07/24 01:44:26;;;;;;;1.00;0.80;;;;;;;32.58;23.27;100520.97;4959076;28;20527;-82
2023/07/24 01:46:54;;;;;;;2.08;0.80;;;;;;;32.39;23.76;100515.06;4957165;28;20515;-82
2023/07/24 01:49:23;;;;;;;3.63;0.93;;;;;;;32.30;23.60;100517.41;4953478;28;20063;-87
2023/07/24 01:51:52;;;;;;;2.40;0.80;;;;;;;32.21;23.59;100518.00;4960228;28;20051;-87
2023/07/24 01:54:30;;;;;;;3.35;0.85;;;;;;;32.03;24.24;100521.88;4954275;28;20051;-82
2023/07/24 01:57:01;;;;;;;0.73;0.55;;;;;;;31.97;24.33;100524.94;4974351;28;20050;-81
2023/07/24 01:59:29;;;;;;;2.25;0.80;;;;;;;31.94;24.41;100525.97;4944527;28;20138;-80
2023/07/24 02:02:01;;;;;;;2.13;0.60;;;;;;;31.88;24.74;100537.88;4953731;28;20048;-80
2023/07/24 02:04:30;;;;;;;4.10;0.70;;;;;;;31.85;24.97;100532.75;4952154;28;20508;-81
2023/07/24 02:06:58;;;;;;;1.55;0.73;;;;;;;31.82;24.52;100538.31;4938170;28;20051;-83
2023/07/24 02:09:27;;;;;;;1.83;0.85;;;;;;;31.62;25.26;100530.66;4947237;28;20039;-87
2023/07/24 02:11:56;;;;;;;1.77;0.60;;;;;;;31.57;25.75;100546.13;4958633;28;20398;-83
2023/07/24 02:14:26;;;;;;;2.72;0.70;;;;;;;31.46;25.46;100547.66;4956457;28;20070;-82
2023/07/24 02:16:55;;;;;;;1.92;0.70;;;;;;;31.41;26.24;100552.41;4963329;28;20493;-85
2023/07/24 02:19:24;;;;;;;2.17;0.55;;;;;;;31.34;25.71;100548.38;4957616;28;20576;-77
2023/07/24 02:21:53;;;;;;;1.35;0.60;;;;;;;31.25;25.83;100554.28;4956299;28;20047;-82
2023/07/24 02:24:21;;;;;;;1.48;0.65;;;;;;;31.13;26.32;100555.00;4947156;28;20055;-83
2023/07/24 02:26:50;;;;;;;1.70;0.60;;;;;;;31.00;25.89;100550.38;4948329;28;20062;-86
2023/07/24 02:29:18;;;;;;;1.80;0.70;;;;;;;30.89;26.76;100552.81;4947354;28;20043;-86
2023/07/24 02:31:49;;;;;;;1.45;0.70;;;;;;;30.74;26.56;100554.56;4949409;28;20126;-81
2023/07/24 02:34:17;;;;;;;2.65;0.70;;;;;;;30.59;26.66;100564.31;4950088;28;20047;-84
2023/07/24 02:36:47;;;;;;;0.95;0.68;;;;;;;30.47;27.59;100563.19;4961781;28;20046;-83
2023/07/24 02:39:16;;;;;;;4.78;0.50;;;;;;;30.36;27.37;100575.44;4956970;28;20099;-82
2023/07/24 02:41:45;;;;;;;0.95;0.60;;;;;;;30.23;27.47;100569.88;4956346;28;20046;-81
2023/07/24 02:44:13;;;;;;;2.58;0.80;;;;;;;30.13;28.39;100579.34;4954534;28;20059;-83
2023/07/24 02:46:42;;;;;;;2.15;0.60;;;;;;;30.03;28.20;100586.97;4948190;28;20047;-84
2023/07/24 02:49:12;;;;;;;1.73;0.60;;;;;;;29.95;28.16;100589.22;4954712;28;20056;-83
2023/07/24 02:51:41;;;;;;;2.58;0.65;;;;;;;29.83;28.59;100588.91;4964012;28;20047;-85
2023/07/24 02:54:09;;;;;;;3.40;0.90;;;;;;;29.72;28.72;100585.13;4965923;28;20494;-86
2023/07/24 02:56:39;;;;;;;3.90;0.68;;;;;;;29.66;28.58;100596.91;4957506;28;20106;-85
2023/07/24 02:59:07;;;;;;;1.83;0.65;;;;;;;29.56;28.82;100596.53;4949580;28;20090;-83
2023/07/24 03:01:38;;;;;;;1.60;0.70;;;;;;;29.52;28.93;100610.13;4944052;28;20106;-82
2023/07/24 03:04:07;;;;;;;1.23;0.90;;;;;;;29.48;28.84;100609.44;4953721;28;20136;-82
2023/07/24 03:06:38;;;;;;;2.17;0.70;;;;;;;29.38;28.75;100609.00;4945155;28;20573;-88
2023/07/24 03:09:06;;;;;;;1.55;0.77;;;;;;;29.41;29.02;100619.53;4941337;29;20047;-83
2023/07/24 03:11:35;;;;;;;2.00;0.60;;;;;;;29.38;28.69;100625.00;4950962;28;20040;-84
2023/07/24 03:14:02;;;;;;;0.85;0.73;;;;;;;29.33;28.83;100627.06;4954078;28;20056;-81
2023/07/24 03:16:31;;;;;;;3.40;0.73;;;;;;;29.27;28.78;100627.34;4961935;28;20057;-83
2023/07/24 03:19:00;;;;;;;1.00;0.65;;;;;;;29.21;29.66;100631.19;4955168;28;20055;-86
2023/07/24 03:21:37;;;;;;;2.17;0.77;;;;;;;29.17;30.03;100634.97;4957758;28;20047;-84
2023/07/24 03:24:13;;;;;;;1.00;0.70;;;;;;;29.11;30.51;100637.06;4953400;28;20058;-84
2023/07/24 03:26:41;;;;;;;1.48;0.50;;;;;;;29.07;30.16;100632.78;4955404;28;20082;-86
2023/07/24 03:29:16;;;;;;;3.35;0.80;;;;;;;29.01;30.71;100642.81;4955258;28;20155;-87
2023/07/24 03:31:48;;;;;;;2.30;0.70;;;;;;;28.96;30.15;100638.66;4956628;28;20631;-84
2023/07/24 03:34:16;;;;;;;3.88;0.90;;;;;;;28.88;30.36;100647.00;4956354;28;20046;-83
2023/07/24 03:36:45;;;;;;;2.50;0.73;;;;;;;28.80;30.49;100649.19;4960267;28;20067;-82
2023/07/24 03:39:18;;;;;;;4.80;1.25;;;;;;;28.72;30.55;100648.69;4951709;28;20055;-86
2023/07/24 03:41:49;;;;;;;3.80;0.80;;;;;;;28.66;30.34;100662.31;4952363;28;20183;-84
2023/07/24 03:44:18;;;;;;;3.72;0.90;;;;;;;28.56;30.87;100668.03;4957062;28;20062;-80
2023/07/24 03:46:46;;;;;;;1.88;0.80;;;;;;;28.42;31.67;100660.66;4945612;28;20102;-83
2023/07/24 03:49:15;;;;;;;2.40;0.70;;;;;;;28.30;31.84;100676.34;4955451;28;20453;-85
2023/07/24 03:51:44;;;;;;;2.13;0.77;;;;;;;28.19;31.67;100674.16;4955267;28;20055;-82
2023/07/24 03:54:12;;;;;;;2.83;0.95;;;;;;;28.08;31.97;100676.44;4952386;28;20055;-85
2023/07/24 03:56:42;;;;;;;2.28;0.80;;;;;;;27.97;32.07;100680.47;4952145;28;20050;-82
2023/07/24 03:59:11;;;;;;;3.33;0.77;;;;;;;27.84;32.01;100694.38;4944458;28;20058;-84
2023/07/24 04:01:40;;;;;;;2.00;0.70;;;;;;;27.73;32.04;100692.13;4937301;28;20513;-84
2023/07/24 04:04:08;;;;;;;2.97;0.88;;;;;;;27.64;32.32;100698.69;4950551;28;20104;-82
2023/07/24 04:06:37;;;;;;;1.45;0.70;;;;;;;27.56;31.96;100695.50;4952298;28;20549;-84
2023/07/24 04:09:06;;;;;;;2.67;0.75;;;;;;;27.47;30.40;100701.22;4970399;28;20043;-84
2023/07/24 04:11:36;;;;;;;1.23;0.55;;;;;;;27.38;30.59;100704.25;4949645;28;20054;-82
2023/07/24 04:14:07;;;;;;;;;;;;;;;27.25;30.55;100706.53;4948747;28;20058;-84
2023/07/24 04:16:36;;;;;;;1.65;0.60;;;;;;;27.09;31.22;100715.06;4952807;28;20584;-83
2023/07/24 04:19:05;;;;;;;0.98;0.60;;;;;;;26.97;31.20;100717.38;4945511;28;20059;-84
2023/07/24 04:21:33;;;;;;;0.90;0.60;;;;;;;26.84;32.10;100720.47;4960157;28;20054;-83
2023/07/24 04:24:02;;;;;;;3.00;0.60;;;;;;;26.71;32.08;100725.41;4949357;28;20143;-86
2023/07/24 04:26:31;;;;;;;0.90;0.60;;;;;;;26.61;32.07;100731.13;4950085;28;20691;-83
2023/07/24 04:28:59;;;;;;;1.38;0.77;;;;;;;26.50;32.97;100735.03;4953931;28;20568;-82
2023/07/24 04:31:29;;;;;;;0.90;0.50;;;;;;;26.38;33.49;100740.75;4957623;28;20051;-85
2023/07/24 04:33:58;;;;;;;3.13;0.80;;;;;;;26.26;33.15;100741.22;4949823;28;20540;-84
2023/07/24 04:36:26;;;;;;;1.30;0.80;;;;;;;26.19;33.42;100745.00;4954766;28;20083;-85
2023/07/24 04:38:55;;;;;;;0.63;0.60;;;;;;;26.09;34.26;100748.00;4951481;28;20051;-84
2023/07/24 04:41:23;;;;;;;2.85;0.57;;;;;;;26.02;34.20;100754.44;4946840;28;20409;-82
2023/07/24 04:43:52;;;;;;;1.15;0.63;;;;;;;25.93;34.29;100760.06;4955901;28;20056;-84
2023/07/24 04:46:20;;;;;;;1.35;0.70;;;;;;;25.87;34.81;100761.09;4953801;28;20090;-82
2023/07/24 04:48:51;;;;;;;1.27;0.57;;;;;;;25.79;34.83;100764.91;4958012;28;20138;-84
2023/07/24 04:51:20;;;;;;;3.72;0.70;;;;;;;25.71;34.45;100768.66;4951315;28;20074;-83
2023/07/24 04:53:48;;;;;;;1.33;0.60;;;;;;;25.64;34.93;100768.94;4951091;28;20061;-85
2023/07/24 04:56:17;;;;;;;1.33;0.82;;;;;;;25.57;34.83;100783.31;4954324;28;20063;-84
2023/07/24 04:58:45;;;;;;;1.35;0.50;;;;;;;25.46;35.19;100778.34;4948607;28;20044;-86
2023/07/24 05:01:14;;;;;;;1.45;0.70;;;;;;;25.41;35.25;100783.78;4950622;28;20050;-86
2023/07/24 05:03:42;;;;;;;2.90;0.98;;;;;;;25.35;35.71;100789.28;4953045;28;20051;-86
2023/07/24 05:06:13;;;;;;;1.73;0.73;;;;;;;25.23;36.01;100794.97;4952328;28;20139;-83
2023/07/24 05:08:41;;;;;;;2.03;0.70;;;;;;;25.11;36.34;100793.53;4952361;28;20043;-81
2023/07/24 05:11:10;;;;;;;1.73;0.70;;;;;;;25.03;35.91;100792.88;4955460;28;20130;-83
2023/07/24 05:13:38;;;;;;;1.23;0.70;;;;;;;24.95;36.29;100802.84;4954765;28;20043;-84
2023/07/24 05:16:07;;;;;;;0.70;0.50;;;;;;;24.87;36.26;100803.91;4954830;28;20098;-82
2023/07/24 05:18:36;;;;;;;1.52;0.60;;;;;;;24.79;36.65;100810.34;4955338;28;20485;-84
2023/07/24 05:21:04;;;;;;;2.28;0.73;;;;;;;24.73;36.81;100816.66;4953199;28;20474;-82
2023/07/24 05:23:35;;;;;;;1.10;0.60;;;;;;;24.66;37.00;100817.75;4948572;28;20047;-82
2023/07/24 05:26:05;;;;;;;1.15;0.57;;;;;;;24.48;37.48;100805.03;4945792;28;20063;-82
2023/07/24 05:28:34;;;;;;;1.23;0.75;;;;;;;24.46;37.08;100813.88;4949239;28;20055;-80
2023/07/24 05:31:04;;;;;;;2.28;0.77;;;;;;;24.40;37.29;100814.03;4952270;28;20603;-79
2023/07/24 05:33:33;;;;;;;1.38;0.70;;;;;;;24.32;37.75;100816.00;4944380;28;20059;-81
2023/07/24 05:36:07;;;;;;;0.80;0.57;;;;;;;24.25;38.11;100814.41;4952560;28;20103;-82
2023/07/24 05:38:37;;;;;;;2.35;0.60;;;;;;;24.15;37.97;100824.38;4949481;28;20445;-81
2023/07/24 05:41:05;;;;;;;1.55;0.60;;;;;;;24.10;38.21;100826.28;4950006;28;20596;-81
2023/07/24 05:43:34;;;;;;;2.35;0.70;;;;;;;24.07;38.45;100836.03;4954706;28;20586;-81
2023/07/24 05:46:03;;;;;;;1.02;0.60;;;;;;;23.89;39.13;100819.75;4952967;28;20055;-80
2023/07/24 05:48:33;;;;;;;1.90;0.70;;;;;;;23.81;40.14;100840.19;4944140;28;20419;-78
2023/07/24 05:51:02;;;;;;;1.08;0.75;;;;;;;23.67;40.61;100842.28;4954372;28;20054;-79
2023/07/24 05:53:30;;;;;;;1.70;0.80;;;;;;;23.55;40.81;100844.28;4950310;28;20081;-79
2023/07/24 05:56:02;;;;;;;1.60;0.90;;;;;;;23.46;40.52;100849.78;4951753;28;20131;-79
2023/07/24 05:58:33;;;;;;;0.90;0.65;;;;;;;23.39;41.68;100856.09;4952453;28;21150;-80
2023/07/24 06:01:03;;;;;;;1.30;0.60;;;;;;;23.33;41.87;100849.16;4955676;28;20623;-81
2023/07/24 06:03:31;;;;;;;3.30;0.95;;;;;;;23.25;42.39;100855.50;4949829;28;20131;-80
2023/07/24 06:06:00;;;;;;;1.92;0.95;;;;;;;23.12;42.84;100863.69;4950298;28;20088;-80
2023/07/24 06:08:28;;;;;;;3.30;0.93;;;;;;;23.00;43.40;100861.31;4955974;28;20537;-80
2023/07/24 06:10:57;;;;;;;2.25;0.98;;;;;;;22.89;43.80;100864.13;4954147;28;20079;-80
2023/07/24 06:13:27;;;;;;;2.13;0.90;;;;;;;22.74;43.79;100869.69;4945232;28;20537;-81
2023/07/24 06:15:56;;;;;;;1.50;0.80;;;;;;;22.68;43.92;100873.34;4951858;28;20055;-79
2023/07/24 06:18:24;;;;;;;1.85;0.85;;;;;;;22.62;44.32;100870.81;4955699;28;20052;-80
2023/07/24 06:20:55;;;;;;;2.42;0.80;;;;;;;22.56;44.91;100881.47;4960599;28;20103;-79
2023/07/24 06:23:26;;;;;;;2.17;0.90;;;;;;;22.47;45.06;100873.72;4955036;28;20054;-79
2023/07/24 06:25:55;;;;;;;1.30;0.60;;;;;;;22.46;44.94;100878.13;4952559;28;20414;-79
2023/07/24 06:28:24;;;;;;;2.10;0.70;;;;;;;22.37;45.17;100876.50;4951304;28;20050;-79
2023/07/24 06:30:56;;;;;;;1.35;0.80;;;;;;;22.21;45.81;100885.56;4960453;28;20043;-79
2023/07/24 06:33:27;;;;;;;0.68;0.43;;;;;;;22.07;45.99;100895.44;4953512;28;20049;-78
2023/07/24 06:35:55;;;;;;;0.60;0.50;;;;;;;21.92;45.43;100902.69;4955582;28;20497;-80
2023/07/24 06:38:24;;;;;;;0.80;0.57;;;;;;;21.79;45.72;100908.19;4955113;28;20086;-78
2023/07/24 06:40:53;;;;;;;4.13;0.52;;;;;;;21.61;46.11;100910.16;4953925;28;20047;-80
2023/07/24 06:43:21;;;;;;;0.80;0.70;;;;;;;21.43;46.48;100906.00;4952466;28;20063;-80
2023/07/24 06:45:50;;;;;;;1.38;0.60;;;;;;;21.34;46.83;100908.72;4943290;28;20139;-80
2023/07/24 06:48:20;;;;;;;4.43;0.98;;;;;;;21.20;47.05;100914.16;4947949;28;20509;-79
2023/07/24 06:50:49;;;;;;;1.10;0.80;;;;;;;21.07;47.53;100917.81;4959764;28;20505;-80
2023/07/24 06:53:17;;;;;;;1.35;0.68;;;;;;;20.99;47.32;100912.66;4954520;28;20047;-81
2023/07/24 06:55:46;;;;;;;2.40;0.90;;;;;;;20.94;47.68;100922.34;4951376;28;20110;-80
2023/07/24 06:58:14;;;;;;;0.47;0.40;;;;;;;20.90;47.98;100918.88;4953939;28;20106;-79
2023/07/24 07:00:43;;;;;;;2.60;0.75;;;;;;;20.89;47.86;100921.50;4959111;28;20050;-80
2023/07/24 07:03:12;;;;;;;1.05;0.70;;;;;;;20.84;48.16;100921.56;4950599;28;20063;-79
2023/07/24 07:05:42;;;;;;;0.80;0.57;;;;;;;20.75;48.41;100924.28;4950422;28;20139;-79
2023/07/24 07:08:10;;;;;;;1.85;0.60;;;;;;;20.65;49.15;100918.25;4952729;28;20056;-79
2023/07/24 07:10:39;;;;;;;6.00;0.80;;;;;;;20.66;49.28;100927.00;4953373;28;20065;-80
2023/07/24 07:13:07;;;;;;;2.92;0.70;;;;;;;20.63;49.52;100925.28;4952597;28;20485;-78
2023/07/24 07:15:38;;;;;;;3.25;0.95;;;;;;;20.53;49.78;100926.22;4952906;28;20059;-79
2023/07/24 07:18:06;;;;;;;0.98;0.52;;;;;;;20.42;49.83;100934.19;4953609;28;20115;-79
2023/07/24 07:20:36;;;;;;;2.10;0.75;;;;;;;20.40;49.93;100935.09;4955407;28;20047;-80
2023/07/24 07:23:06;;;;;;;1.45;0.85;;;;;;;20.40;49.83;100935.09;4954470;28;20054;-80
2023/07/24 07:25:35;;;;;;;4.32;1.05;;;;;;;20.39;50.04;100944.72;4948064;28;20053;-80
2023/07/24 07:28:03;;;;;;;0.60;0.50;;;;;;;20.38;50.62;100939.47;4950736;28;20817;-78
2023/07/24 07:30:35;;;;;;;1.02;0.60;;;;;;;20.30;51.11;100939.56;4950009;28;20055;-78
2023/07/24 07:33:04;;;;;;;2.10;0.70;;;;;;;20.17;51.70;100937.88;4946854;28;20047;-78
2023/07/24 07:35:33;;;;;;;1.42;0.70;;;;;;;19.95;52.80;100935.44;4952876;28;20051;-77
2023/07/24 07:38:02;;;;;;;0.98;0.63;;;;;;;19.77;53.93;100938.13;4953202;28;20572;-77
2023/07/24 07:40:32;;;;;;;2.22;0.80;;;;;;;19.63;54.74;100939.06;4953561;28;20135;-78
2023/07/24 07:43:03;;;;;;;3.13;0.80;;;;;;;19.54;54.93;100938.22;4949783;28;20535;-79
2023/07/24 07:45:32;;;;;;;2.47;1.20;;;;;;;19.48;55.17;100936.50;4949974;28;20436;-79
2023/07/24 07:48:01;;;;;;;0.90;0.80;;;;;;;19.45;54.92;100926.91;4941916;28;20054;-78
2023/07/24 07:50:29;;;;;;;6.82;1.10;;;;;;;19.45;55.30;100933.91;4951698;28;20107;-78
2023/07/24 07:52:58;;;;;;;1.48;0.90;;;;;;;19.45;55.11;100926.03;4949791;28;20063;-80
2023/07/24 07:55:26;;;;;;;1.70;0.70;;;;;;;19.39;55.49;100921.66;4953671;28;20540;-80
2023/07/24 07:57:57;;;;;;;2.70;1.00;;;;;;;19.42;55.58;100926.91;4952997;28;20462;-80
2023/07/24 08:00:25;;;;;;;2.20;0.85;;;;;;;19.36;56.40;100921.69;4958929;28;20093;-78
2023/07/24 08:02:54;;;;;;;2.10;0.85;;;;;;;19.31;57.16;100928.72;4948353;28;20058;-79
2023/07/24 08:05:22;;;;;;;3.13;0.80;;;;;;;19.22;58.03;100934.00;4953144;28;20047;-79
2023/07/24 08:07:51;;;;;;;1.33;0.65;;;;;;;19.12;58.76;100930.50;4949805;28;20097;-78
2023/07/24 08:10:20;;;;;;;1.35;0.68;;;;;;;19.03;58.82;100928.78;4958571;28;20040;-77
2023/07/24 08:12:48;;;;;;;1.20;0.73;;;;;;;19.02;59.07;100928.78;4953227;28;20716;-77
2023/07/24 08:15:18;;;;;;;1.73;0.95;;;;;;;19.03;59.08;100927.91;4945919;28;20051;-78
2023/07/24 08:17:47;;;;;;;1.20;0.70;;;;;;;19.03;58.46;100923.56;4951882;28;20108;-77
2023/07/24 08:20:15;;;;;;;2.85;0.65;;;;;;;19.02;58.35;100924.41;4954113;28;20058;-77
2023/07/24 08:22:44;;;;;;;2.08;0.77;;;;;;;19.00;59.01;100923.53;4952581;28;20094;-77
2023/07/24 08:25:13;;;;;;;0.98;0.63;;;;;;;18.98;59.03;100935.78;4950574;28;20107;-78
2023/07/24 08:27:41;;;;;;;2.75;0.90;;;;;;;18.95;59.55;100935.78;4958429;28;20455;-78
2023/07/24 08:30:10;;;;;;;1.23;0.90;;;;;;;18.92;58.76;100938.44;4949809;28;20555;-79
2023/07/24 08:32:41;;;;;;;2.97;0.98;;;;;;;18.83;60.19;100941.06;4954606;28;20094;-79
2023/07/24 08:35:10;;;;;;;2.88;0.90;;;;;;;18.75;61.40;100940.16;4943450;28;20115;-79
2023/07/24 08:37:38;;;;;;;3.40;0.65;;;;;;;18.71;60.54;100943.66;4950458;28;20524;-78
2023/07/24 08:40:08;;;;;;;2.15;0.88;;;;;;;18.69;61.28;100937.53;4952302;28;20054;-79
2023/07/24 08:42:40;;;;;;;0.95;0.82;;;;;;;18.59;61.71;100941.91;4950233;28;20047;-77
2023/07/24 08:45:14;;;;;;;1.48;0.63;;;;;;;18.47;62.95;100934.94;4961152;28;20497;-78
2023/07/24 08:47:48;;;;;;;1.38;0.80;;;;;;;18.43;62.66;100949.78;4952792;28;20047;-78
2023/07/24 08:50:18;;;;;;;1.67;0.82;;;;;;;18.41;62.95;100941.03;4957285;28;20047;-78
2023/07/24 08:52:46;;;;;;;3.90;0.80;;;;;;;18.42;62.87;100940.19;4953963;28;20047;-78
2023/07/24 08:55:15;;;;;;;1.70;0.75;;;;;;;18.42;63.29;100941.94;4950943;28;20046;-78
2023/07/24 08:57:44;;;;;;;1.40;0.75;;;;;;;18.36;63.08;100952.41;4948136;28;20047;-78
2023/07/24 09:00:13;;;;;;;1.15;0.75;;;;;;;18.32;63.84;100945.41;4951975;28;20074;-78
2023/07/24 09:02:42;;;;;;;1.83;0.90;;;;;;;18.29;63.64;100933.19;4949613;28;20050;-77
2023/07/24 09:05:15;;;;;;;2.45;0.70;;;;;;;18.29;63.87;100941.03;4948146;28;20047;-77
2023/07/24 09:07:44;;;;;;;4.03;1.20;;;;;;;18.27;62.78;100940.16;4949256;28;20046;-77
2023/07/24 09:10:12;;;;;;;1.40;1.00;;;;;;;18.26;63.02;100948.03;4945486;28;20047;-77
2023/07/24 09:12:43;;;;;;;1.05;0.60;;;;;;;18.25;62.91;100943.66;4952389;28;20072;-78
2023/07/24 09:15:12;;;;;;;1.08;0.93;;;;;;;18.18;62.95;100941.03;4952427;28;20043;-77
2023/07/24 09:17:50;;;;;;;1.42;0.80;;;;;;;18.18;63.22;100948.88;4946947;28;20500;-77
2023/07/24 09:20:21;;;;;;;1.52;1.35;;;;;;;18.16;62.65;100945.41;4955522;28;20090;-78
2023/07/24 09:22:56;;;;;;;3.63;0.80;;;;;;;18.11;62.73;100949.75;4945493;28;20627;-78
2023/07/24 09:25:32;;;;;;;1.10;0.85;;;;;;;18.09;63.33;100950.63;4954075;28;20134;-77
2023/07/24 09:28:00;;;;;;;1.25;0.80;;;;;;;18.00;63.82;100947.13;4954808;28;20134;-78
2023/07/24 09:30:29;;;;;;;1.10;0.82;;;;;;;17.95;63.93;100947.97;4956670;28;20464;-78
2023/07/24 09:32:58;;;;;;;2.22;0.77;;;;;;;17.92;64.14;100947.97;4952647;28;20078;-78
2023/07/24 09:35:28;;;;;;;1.88;0.70;;;;;;;17.90;64.54;100949.72;4954211;28;20969;-78
2023/07/24 09:38:05;;;;;;;1.77;1.02;;;;;;;17.88;65.04;100949.69;4949070;28;20497;-78
2023/07/24 09:40:42;;;;;;;1.63;0.80;;;;;;;17.77;65.90;100954.91;4956556;28;20057;-76
2023/07/24 09:43:24;;;;;;;1.48;0.80;;;;;;;17.61;66.83;100960.91;4953592;28;20070;-77
2023/07/24 09:45:53;;;;;;;2.00;1.00;;;;;;;17.44;66.93;100955.63;4956415;28;20058;-77
2023/07/24 09:48:23;;;;;;;3.03;1.00;;;;;;;17.35;67.11;100953.84;4954458;28;20051;-78
2023/07/24 09:50:55;;;;;;;2.53;1.02;;;;;;;17.35;66.90;100956.44;4953384;28;20096;-77
2023/07/24 09:53:35;;;;;;;3.35;0.63;;;;;;;17.33;67.08;100954.69;4948877;28;20601;-77
2023/07/24 09:56:05;;;;;;;1.38;0.75;;;;;;;17.28;67.30;100959.03;4948410;28;20047;-77
2023/07/24 09:58:35;;;;;;;1.15;1.00;;;;;;;17.27;67.26;100957.28;4954790;28;20078;-78
2023/07/24 10:01:06;;;;;;;0.80;0.68;;;;;;;17.22;67.21;100949.41;4951103;28;20052;-77
2023/07/24 10:03:36;;;;;;;1.02;0.65;;;;;;;17.12;67.48;100953.72;4957633;28;20053;-78
2023/07/24 10:06:06;;;;;;;4.15;1.20;;;;;;;17.01;68.17;100951.91;4949129;28;20060;-77
2023/07/24 10:08:36;;;;;;;4.82;0.90;;;;;;;16.91;68.49;100946.63;4955191;28;20098;-78
2023/07/24 10:11:05;;;;;;;1.65;0.90;;;;;;;16.92;68.08;100950.97;4954544;28;20095;-79
2023/07/24 10:13:36;;;;;;;1.00;0.70;;;;;;;16.93;67.56;100947.50;4957821;28;20059;-77
2023/07/24 10:16:06;;;;;;;1.20;0.82;;;;;;;16.91;68.58;100957.06;4952629;28;20047;-77
2023/07/24 10:18:36;;;;;;;0.77;0.60;;;;;;;16.90;68.93;100951.81;4953952;28;20058;-78
2023/07/24 10:21:07;;;;;;;1.55;0.60;;;;;;;16.90;68.14;100963.16;4948329;28;20055;-79
2023/07/24 10:23:38;;;;;;;1.13;1.00;;;;;;;16.91;68.38;100964.91;4953512;28;20044;-78
2023/07/24 10:26:07;;;;;;;1.33;0.70;;;;;;;16.90;68.12;100963.16;4950482;28;20090;-79
2023/07/24 10:28:38;;;;;;;1.08;0.77;;;;;;;16.85;68.75;100967.47;4947841;28;20136;-78
2023/07/24 10:31:10;;;;;;;0.90;0.70;;;;;;;16.82;69.20;100969.22;4960730;28;20070;-78
2023/07/24 10:33:45;;;;;;;0.90;0.65;;;;;;;16.82;68.67;100977.06;4954289;28;20052;-77
2023/07/24 10:36:19;;;;;;;2.15;0.90;;;;;;;16.80;69.32;100974.41;4957051;28;20124;-77
2023/07/24 10:38:53;;;;;;;1.23;0.88;;;;;;;16.79;69.36;100985.75;4953286;28;20062;-79
2023/07/24 10:41:37;;;;;;;0.95;0.80;;;;;;;16.77;69.91;100982.22;4948126;28;20066;-79
2023/07/24 10:44:06;;;;;;;2.10;0.93;;;;;;;16.75;70.01;100994.38;4951275;28;20066;-79
2023/07/24 10:46:39;;;;;;;1.27;0.70;;;;;;;16.68;69.77;101001.31;4950678;28;20122;-79
2023/07/24 10:49:09;;;;;;;1.08;0.85;;;;;;;16.60;70.93;100996.88;4954775;28;20532;-78
2023/07/24 10:51:39;;;;;;;0.90;0.68;;;;;;;16.60;71.85;100999.47;4948967;28;20062;-77
2023/07/24 10:54:07;;;;;;;1.73;1.08;;;;;;;16.57;72.41;100995.09;4952753;28;20418;-77
2023/07/24 10:56:39;;;;;;;2.22;1.30;;;;;;;16.53;73.37;100991.56;4950566;28;20123;-77
2023/07/24 10:59:07;;;;;;;1.52;0.88;;;;;;;16.47;72.65;100994.16;4959452;28;20481;-77
2023/07/24 11:01:36;;;;;;;1.27;0.80;;;;;;;16.42;72.67;100994.97;4951458;28;20058;-77
2023/07/24 11:04:05;;;;;;;0.90;0.63;;;;;;;16.28;72.88;101000.91;4955381;28;20052;-77
2023/07/24 11:06:34;;;;;;;2.53;1.00;;;;;;;16.22;73.04;100993.03;4952238;28;20137;-77
2023/07/24 11:09:04;;;;;;;3.67;1.00;;;;;;;16.23;73.16;100997.38;4953994;28;20118;-78
2023/07/24 11:11:34;;;;;;;3.55;0.85;;;;;;;16.25;72.84;101002.63;4957142;28;20051;-78
2023/07/24 11:14:04;;;;;;;2.70;1.10;;;;;;;16.24;73.52;100995.66;4948755;28;20050;-80
2023/07/24 11:16:33;;;;;;;2.90;0.80;;;;;;;16.23;73.29;101006.97;4949671;28;20051;-79
2023/07/24 11:19:01;;;;;;;2.05;1.10;;;;;;;16.18;73.39;101003.44;4957627;28;20058;-79
2023/07/24 11:21:30;;;;;;;1.25;0.98;;;;;;;16.13;74.00;100998.16;4952281;28;20047;-79
2023/07/24 11:23:59;;;;;;;1.95;1.00;;;;;;;16.11;74.36;100999.88;4944598;28;20059;-78
2023/07/24 11:26:29;;;;;;;1.08;0.75;;;;;;;16.07;74.49;101009.41;4949620;28;20509;-79
2023/07/24 11:28:58;;;;;;;2.53;0.88;;;;;;;16.03;75.15;101007.59;4950935;28;20488;-78
2023/07/24 11:31:26;;;;;;;1.65;0.70;;;;;;;15.97;75.98;101004.97;4950433;28;20047;-78
2023/07/24 11:33:55;;;;;;;1.55;0.88;;;;;;;15.94;76.43;101004.03;4950613;28;20062;-78
2023/07/24 11:36:24;;;;;;;1.10;0.68;;;;;;;15.88;75.04;101007.47;4950921;28;20042;-78